sensor_id;sensor_type;location;lat;lon;timestamp;P1;durP1;ratioP1;P2;durP2;ratioP2
70532;SDS011;58088;51.186;17.130;2022-10-16T00:01:37;11.60;;;7.30;;
70532;SDS011;58088;51.186;17.130;2022-10-16T00:04:04;11.30;;;6.90;;
70532;SDS011;58088;51.186;17.130;2022-10-16T00:06:31;10.90;;;6.20;;
70532;SDS011;58088;51.186;17.130;2022-10-16T00:08:57;10.80;;;6.60;;
70532;SDS011;58088;51.186;17.130;2022-10-16T00:11:32;9.70;;;6.80;;
70532;SDS011;58088;51.186;17.130;2022-10-16T00:14:06;9.30;;;5.60;;
70532;SDS011;58088;51.186;17.130;2022-10-16T00:16:34;10.70;;;6.10;;
70532;SDS011;58088;51.186;17.130;2022-10-16T00:19:00;8.50;;;5.10;;
70532;SDS011;58088;51.186;17.130;2022-10-16T00:21:29;8.70;;;5.70;;
70532;SDS011;58088;51.186;17.130;2022-10-16T00:24:06;8.90;;;5.50;;
70532;SDS011;58088;51.186;17.130;2022-10-16T00:26:35;11.10;;;5.20;;
70532;SDS011;58088;51.186;17.130;2022-10-16T00:29:04;10.70;;;5.20;;
70532;SDS011;58088;51.186;17.130;2022-10-16T00:31:31;8.30;;;5.00;;
70532;SDS011;58088;51.186;17.130;2022-10-16T00:33:58;8.30;;;4.60;;
70532;SDS011;58088;51.186;17.130;2022-10-16T00:36:25;8.30;;;5.00;;
70532;SDS011;58088;51.186;17.130;2022-10-16T00:38:57;6.30;;;4.10;;
70532;SDS011;58088;51.186;17.130;2022-10-16T00:41:26;8.30;;;4.70;;
70532;SDS011;58088;51.186;17.130;2022-10-16T00:43:57;8.60;;;4.30;;
70532;SDS011;58088;51.186;17.130;2022-10-16T00:46:38;7.00;;;3.40;;
70532;SDS011;58088;51.186;17.130;2022-10-16T00:49:15;7.70;;;3.90;;
70532;SDS011;58088;51.186;17.130;2022-10-16T00:51:48;7.20;;;4.30;;
70532;SDS011;58088;51.186;17.130;2022-10-16T00:54:21;7.80;;;4.40;;
70532;SDS011;58088;51.186;17.130;2022-10-16T00:57:03;6.40;;;3.90;;
70532;SDS011;58088;51.186;17.130;2022-10-16T00:59:40;6.10;;;3.70;;
70532;SDS011;58088;51.186;17.130;2022-10-16T01:02:13;6.30;;;3.70;;
70532;SDS011;58088;51.186;17.130;2022-10-16T01:04:51;7.10;;;3.10;;
70532;SDS011;58088;51.186;17.130;2022-10-16T01:11:01;5.80;;;3.40;;
70532;SDS011;58088;51.186;17.130;2022-10-16T01:13:42;5.90;;;3.20;;
70532;SDS011;58088;51.186;17.130;2022-10-16T01:16:34;6.20;;;3.50;;
70532;SDS011;58088;51.186;17.130;2022-10-16T01:21:53;7.70;;;3.20;;
70532;SDS011;58088;51.186;17.130;2022-10-16T01:32:56;7.70;;;3.50;;
70532;SDS011;58088;51.186;17.130;2022-10-16T01:35:42;8.00;;;3.10;;
70532;SDS011;58088;51.186;17.130;2022-10-16T01:41:01;5.80;;;3.00;;
70532;SDS011;58088;51.186;17.130;2022-10-16T01:43:38;5.00;;;2.80;;
70532;SDS011;58088;51.186;17.130;2022-10-16T01:46:13;5.10;;;2.90;;
70532;SDS011;58088;51.186;17.130;2022-10-16T01:48:41;7.60;;;2.80;;
70532;SDS011;58088;51.186;17.130;2022-10-16T01:51:12;6.00;;;2.90;;
70532;SDS011;58088;51.186;17.130;2022-10-16T01:53:41;6.10;;;2.90;;
70532;SDS011;58088;51.186;17.130;2022-10-16T01:56:12;6.60;;;3.30;;
70532;SDS011;58088;51.186;17.130;2022-10-16T01:59:02;5.50;;;2.90;;
70532;SDS011;58088;51.186;17.130;2022-10-16T02:05:17;6.20;;;2.20;;
70532;SDS011;58088;51.186;17.130;2022-10-16T02:07:54;5.30;;;2.90;;
70532;SDS011;58088;51.186;17.130;2022-10-16T02:10:21;5.20;;;2.70;;
70532;SDS011;58088;51.186;17.130;2022-10-16T02:12:57;5.40;;;3.10;;
70532;SDS011;58088;51.186;17.130;2022-10-16T02:15:35;6.50;;;3.10;;
70532;SDS011;58088;51.186;17.130;2022-10-16T02:18:05;6.30;;;3.40;;
70532;SDS011;58088;51.186;17.130;2022-10-16T02:20:41;6.10;;;3.10;;
70532;SDS011;58088;51.186;17.130;2022-10-16T02:23:18;5.90;;;3.00;;
70532;SDS011;58088;51.186;17.130;2022-10-16T02:25:50;7.30;;;3.70;;
70532;SDS011;58088;51.186;17.130;2022-10-16T02:28:27;5.80;;;3.00;;
70532;SDS011;58088;51.186;17.130;2022-10-16T02:31:04;5.30;;;3.20;;
70532;SDS011;58088;51.186;17.130;2022-10-16T02:33:34;7.10;;;3.50;;
70532;SDS011;58088;51.186;17.130;2022-10-16T02:36:03;6.60;;;3.50;;
70532;SDS011;58088;51.186;17.130;2022-10-16T02:38:29;6.10;;;3.40;;
70532;SDS011;58088;51.186;17.130;2022-10-16T02:40:56;6.60;;;3.50;;
70532;SDS011;58088;51.186;17.130;2022-10-16T02:43:22;6.50;;;3.40;;
70532;SDS011;58088;51.186;17.130;2022-10-16T02:45:51;6.60;;;3.20;;
70532;SDS011;58088;51.186;17.130;2022-10-16T02:48:18;7.10;;;3.40;;
70532;SDS011;58088;51.186;17.130;2022-10-16T02:50:44;5.60;;;2.80;;
70532;SDS011;58088;51.186;17.130;2022-10-16T02:53:10;6.20;;;2.90;;
70532;SDS011;58088;51.186;17.130;2022-10-16T02:55:36;5.60;;;3.30;;
70532;SDS011;58088;51.186;17.130;2022-10-16T02:58:02;6.90;;;2.90;;
70532;SDS011;58088;51.186;17.130;2022-10-16T03:00:29;5.90;;;3.00;;
70532;SDS011;58088;51.186;17.130;2022-10-16T03:02:55;5.90;;;3.00;;
70532;SDS011;58088;51.186;17.130;2022-10-16T03:05:21;5.60;;;2.90;;
70532;SDS011;58088;51.186;17.130;2022-10-16T03:07:47;8.20;;;3.70;;
70532;SDS011;58088;51.186;17.130;2022-10-16T03:10:14;6.10;;;3.10;;
70532;SDS011;58088;51.186;17.130;2022-10-16T03:12:40;6.30;;;3.00;;
70532;SDS011;58088;51.186;17.130;2022-10-16T03:15:07;5.40;;;2.60;;
70532;SDS011;58088;51.186;17.130;2022-10-16T03:17:33;5.50;;;2.90;;
70532;SDS011;58088;51.186;17.130;2022-10-16T03:20:00;4.80;;;2.50;;
70532;SDS011;58088;51.186;17.130;2022-10-16T03:22:27;5.30;;;2.70;;
70532;SDS011;58088;51.186;17.130;2022-10-16T03:24:53;5.60;;;2.90;;
70532;SDS011;58088;51.186;17.130;2022-10-16T03:27:19;4.90;;;2.70;;
70532;SDS011;58088;51.186;17.130;2022-10-16T03:29:45;4.50;;;2.60;;
70532;SDS011;58088;51.186;17.130;2022-10-16T03:32:11;4.60;;;2.60;;
70532;SDS011;58088;51.186;17.130;2022-10-16T03:34:37;6.10;;;2.60;;
70532;SDS011;58088;51.186;17.130;2022-10-16T03:37:04;4.90;;;2.80;;
70532;SDS011;58088;51.186;17.130;2022-10-16T03:39:30;5.10;;;2.80;;
70532;SDS011;58088;51.186;17.130;2022-10-16T03:41:56;5.10;;;2.80;;
70532;SDS011;58088;51.186;17.130;2022-10-16T03:44:22;5.50;;;2.80;;
70532;SDS011;58088;51.186;17.130;2022-10-16T03:46:49;6.40;;;3.20;;
70532;SDS011;58088;51.186;17.130;2022-10-16T03:49:15;4.70;;;2.90;;
70532;SDS011;58088;51.186;17.130;2022-10-16T03:51:41;10.30;;;4.10;;
70532;SDS011;58088;51.186;17.130;2022-10-16T03:54:08;5.70;;;2.90;;
70532;SDS011;58088;51.186;17.130;2022-10-16T03:56:35;5.60;;;3.20;;
70532;SDS011;58088;51.186;17.130;2022-10-16T03:59:01;5.40;;;3.10;;
70532;SDS011;58088;51.186;17.130;2022-10-16T04:01:28;5.00;;;2.90;;
70532;SDS011;58088;51.186;17.130;2022-10-16T04:03:54;6.00;;;3.20;;
70532;SDS011;58088;51.186;17.130;2022-10-16T04:06:20;7.60;;;3.60;;
70532;SDS011;58088;51.186;17.130;2022-10-16T04:08:46;7.50;;;4.00;;
70532;SDS011;58088;51.186;17.130;2022-10-16T04:11:12;5.80;;;3.20;;
70532;SDS011;58088;51.186;17.130;2022-10-16T04:13:38;5.70;;;3.30;;
70532;SDS011;58088;51.186;17.130;2022-10-16T04:16:05;7.40;;;3.90;;
70532;SDS011;58088;51.186;17.130;2022-10-16T04:18:31;6.30;;;3.60;;
70532;SDS011;58088;51.186;17.130;2022-10-16T04:21:02;5.90;;;3.40;;
70532;SDS011;58088;51.186;17.130;2022-10-16T04:23:30;6.10;;;3.20;;
70532;SDS011;58088;51.186;17.130;2022-10-16T04:25:56;6.10;;;3.40;;
70532;SDS011;58088;51.186;17.130;2022-10-16T04:28:22;5.70;;;3.20;;
70532;SDS011;58088;51.186;17.130;2022-10-16T04:30:48;6.50;;;3.20;;
70532;SDS011;58088;51.186;17.130;2022-10-16T04:33:15;7.30;;;3.70;;
70532;SDS011;58088;51.186;17.130;2022-10-16T04:35:41;5.90;;;3.60;;
70532;SDS011;58088;51.186;17.130;2022-10-16T04:38:07;7.00;;;3.80;;
70532;SDS011;58088;51.186;17.130;2022-10-16T04:40:34;6.20;;;3.80;;
70532;SDS011;58088;51.186;17.130;2022-10-16T04:43:03;6.30;;;3.80;;
70532;SDS011;58088;51.186;17.130;2022-10-16T04:45:30;5.90;;;3.20;;
70532;SDS011;58088;51.186;17.130;2022-10-16T04:47:58;6.00;;;3.30;;
70532;SDS011;58088;51.186;17.130;2022-10-16T04:50:25;5.90;;;3.60;;
70532;SDS011;58088;51.186;17.130;2022-10-16T04:53:05;4.90;;;3.00;;
70532;SDS011;58088;51.186;17.130;2022-10-16T04:55:32;5.20;;;2.90;;
70532;SDS011;58088;51.186;17.130;2022-10-16T04:57:58;4.70;;;2.20;;
70532;SDS011;58088;51.186;17.130;2022-10-16T05:00:24;6.00;;;3.30;;
70532;SDS011;58088;51.186;17.130;2022-10-16T05:02:51;6.50;;;3.80;;
70532;SDS011;58088;51.186;17.130;2022-10-16T05:05:17;5.50;;;3.50;;
70532;SDS011;58088;51.186;17.130;2022-10-16T05:07:46;7.20;;;3.40;;
70532;SDS011;58088;51.186;17.130;2022-10-16T05:10:13;5.60;;;3.50;;
70532;SDS011;58088;51.186;17.130;2022-10-16T05:12:39;6.40;;;3.60;;
70532;SDS011;58088;51.186;17.130;2022-10-16T05:15:06;6.70;;;3.40;;
70532;SDS011;58088;51.186;17.130;2022-10-16T05:17:39;5.20;;;2.60;;
70532;SDS011;58088;51.186;17.130;2022-10-16T05:20:06;5.20;;;3.20;;
70532;SDS011;58088;51.186;17.130;2022-10-16T05:22:33;6.50;;;3.00;;
70532;SDS011;58088;51.186;17.130;2022-10-16T05:24:59;6.30;;;3.10;;
70532;SDS011;58088;51.186;17.130;2022-10-16T05:27:25;6.00;;;3.00;;
70532;SDS011;58088;51.186;17.130;2022-10-16T05:29:51;4.40;;;2.80;;
70532;SDS011;58088;51.186;17.130;2022-10-16T05:32:18;5.70;;;3.10;;
70532;SDS011;58088;51.186;17.130;2022-10-16T05:34:45;5.20;;;3.20;;
70532;SDS011;58088;51.186;17.130;2022-10-16T05:37:11;5.70;;;3.20;;
70532;SDS011;58088;51.186;17.130;2022-10-16T05:39:38;5.40;;;2.90;;
70532;SDS011;58088;51.186;17.130;2022-10-16T05:42:05;5.00;;;3.00;;
70532;SDS011;58088;51.186;17.130;2022-10-16T05:44:32;5.20;;;3.20;;
70532;SDS011;58088;51.186;17.130;2022-10-16T05:46:59;6.40;;;3.60;;
70532;SDS011;58088;51.186;17.130;2022-10-16T05:49:25;6.40;;;3.40;;
70532;SDS011;58088;51.186;17.130;2022-10-16T05:51:51;6.70;;;3.90;;
70532;SDS011;58088;51.186;17.130;2022-10-16T05:54:17;6.70;;;3.80;;
70532;SDS011;58088;51.186;17.130;2022-10-16T05:56:43;6.10;;;3.30;;
70532;SDS011;58088;51.186;17.130;2022-10-16T05:59:09;6.40;;;3.90;;
70532;SDS011;58088;51.186;17.130;2022-10-16T06:01:36;8.50;;;4.00;;
70532;SDS011;58088;51.186;17.130;2022-10-16T06:04:02;7.30;;;3.90;;
70532;SDS011;58088;51.186;17.130;2022-10-16T06:06:29;6.70;;;4.20;;
70532;SDS011;58088;51.186;17.130;2022-10-16T06:08:56;7.30;;;4.00;;
70532;SDS011;58088;51.186;17.130;2022-10-16T06:11:26;7.90;;;4.30;;
70532;SDS011;58088;51.186;17.130;2022-10-16T06:13:57;6.80;;;3.70;;
70532;SDS011;58088;51.186;17.130;2022-10-16T06:16:28;6.40;;;4.00;;
70532;SDS011;58088;51.186;17.130;2022-10-16T06:18:55;6.60;;;4.00;;
70532;SDS011;58088;51.186;17.130;2022-10-16T06:21:24;7.00;;;4.10;;
70532;SDS011;58088;51.186;17.130;2022-10-16T06:23:52;7.50;;;4.40;;
70532;SDS011;58088;51.186;17.130;2022-10-16T06:26:23;7.00;;;3.90;;
70532;SDS011;58088;51.186;17.130;2022-10-16T06:28:54;6.00;;;3.50;;
70532;SDS011;58088;51.186;17.130;2022-10-16T06:31:22;6.90;;;3.40;;
70532;SDS011;58088;51.186;17.130;2022-10-16T06:33:54;6.80;;;3.50;;
70532;SDS011;58088;51.186;17.130;2022-10-16T06:36:24;7.40;;;3.60;;
70532;SDS011;58088;51.186;17.130;2022-10-16T06:38:54;7.20;;;3.60;;
70532;SDS011;58088;51.186;17.130;2022-10-16T06:41:23;6.50;;;3.60;;
70532;SDS011;58088;51.186;17.130;2022-10-16T06:43:53;7.60;;;3.70;;
70532;SDS011;58088;51.186;17.130;2022-10-16T06:46:25;6.40;;;3.80;;
70532;SDS011;58088;51.186;17.130;2022-10-16T06:48:56;7.60;;;3.70;;
70532;SDS011;58088;51.186;17.130;2022-10-16T06:51:25;7.30;;;3.60;;
70532;SDS011;58088;51.186;17.130;2022-10-16T06:53:56;8.10;;;3.40;;
70532;SDS011;58088;51.186;17.130;2022-10-16T06:56:27;6.30;;;3.40;;
70532;SDS011;58088;51.186;17.130;2022-10-16T06:58:55;5.40;;;3.20;;
70532;SDS011;58088;51.186;17.130;2022-10-16T07:01:23;7.40;;;3.70;;
70532;SDS011;58088;51.186;17.130;2022-10-16T07:03:52;7.30;;;3.60;;
70532;SDS011;58088;51.186;17.130;2022-10-16T07:06:23;9.30;;;3.70;;
70532;SDS011;58088;51.186;17.130;2022-10-16T07:08:51;6.40;;;3.30;;
70532;SDS011;58088;51.186;17.130;2022-10-16T07:11:20;6.80;;;3.80;;
70532;SDS011;58088;51.186;17.130;2022-10-16T07:13:48;6.40;;;3.50;;
70532;SDS011;58088;51.186;17.130;2022-10-16T07:16:18;6.00;;;3.40;;
70532;SDS011;58088;51.186;17.130;2022-10-16T07:18:46;5.20;;;2.90;;
70532;SDS011;58088;51.186;17.130;2022-10-16T07:21:21;6.60;;;3.20;;
70532;SDS011;58088;51.186;17.130;2022-10-16T07:23:52;5.20;;;2.90;;
70532;SDS011;58088;51.186;17.130;2022-10-16T07:26:20;5.30;;;2.70;;
70532;SDS011;58088;51.186;17.130;2022-10-16T07:28:46;5.40;;;2.70;;
70532;SDS011;58088;51.186;17.130;2022-10-16T07:31:15;5.00;;;3.00;;
70532;SDS011;58088;51.186;17.130;2022-10-16T07:33:43;6.00;;;3.00;;
70532;SDS011;58088;51.186;17.130;2022-10-16T07:36:12;5.80;;;3.20;;
70532;SDS011;58088;51.186;17.130;2022-10-16T07:38:40;5.70;;;3.10;;
70532;SDS011;58088;51.186;17.130;2022-10-16T07:41:11;4.80;;;3.10;;
70532;SDS011;58088;51.186;17.130;2022-10-16T07:43:39;5.30;;;3.00;;
70532;SDS011;58088;51.186;17.130;2022-10-16T07:46:06;6.90;;;3.50;;
70532;SDS011;58088;51.186;17.130;2022-10-16T07:48:33;5.30;;;3.10;;
70532;SDS011;58088;51.186;17.130;2022-10-16T07:51:05;7.70;;;3.40;;
70532;SDS011;58088;51.186;17.130;2022-10-16T07:53:33;5.20;;;2.90;;
70532;SDS011;58088;51.186;17.130;2022-10-16T07:56:04;4.80;;;2.70;;
70532;SDS011;58088;51.186;17.130;2022-10-16T07:58:33;4.70;;;2.70;;
70532;SDS011;58088;51.186;17.130;2022-10-16T08:01:07;4.10;;;2.50;;
70532;SDS011;58088;51.186;17.130;2022-10-16T08:03:36;4.60;;;2.30;;
70532;SDS011;58088;51.186;17.130;2022-10-16T08:06:03;4.10;;;2.40;;
70532;SDS011;58088;51.186;17.130;2022-10-16T08:08:30;3.90;;;2.20;;
70532;SDS011;58088;51.186;17.130;2022-10-16T08:10:57;6.20;;;2.60;;
70532;SDS011;58088;51.186;17.130;2022-10-16T08:13:23;3.90;;;2.20;;
70532;SDS011;58088;51.186;17.130;2022-10-16T08:15:49;4.10;;;2.00;;
70532;SDS011;58088;51.186;17.130;2022-10-16T08:18:16;5.30;;;2.30;;
70532;SDS011;58088;51.186;17.130;2022-10-16T08:20:42;4.40;;;2.10;;
70532;SDS011;58088;51.186;17.130;2022-10-16T08:23:11;3.80;;;2.00;;
70532;SDS011;58088;51.186;17.130;2022-10-16T08:25:39;3.40;;;2.00;;
70532;SDS011;58088;51.186;17.130;2022-10-16T08:28:09;3.60;;;2.00;;
70532;SDS011;58088;51.186;17.130;2022-10-16T08:30:37;5.40;;;2.00;;
70532;SDS011;58088;51.186;17.130;2022-10-16T08:33:03;3.80;;;1.80;;
70532;SDS011;58088;51.186;17.130;2022-10-16T08:35:30;6.40;;;1.60;;
70532;SDS011;58088;51.186;17.130;2022-10-16T08:37:56;3.80;;;2.00;;
70532;SDS011;58088;51.186;17.130;2022-10-16T08:40:26;3.40;;;1.90;;
70532;SDS011;58088;51.186;17.130;2022-10-16T08:48:45;5.00;;;2.20;;
70532;SDS011;58088;51.186;17.130;2022-10-16T08:51:33;3.50;;;2.00;;
70532;SDS011;58088;51.186;17.130;2022-10-16T08:57:26;3.70;;;1.90;;
70532;SDS011;58088;51.186;17.130;2022-10-16T08:59:54;3.80;;;1.80;;
70532;SDS011;58088;51.186;17.130;2022-10-16T09:02:37;3.20;;;1.90;;
70532;SDS011;58088;51.186;17.130;2022-10-16T09:08:55;3.00;;;1.70;;
70532;SDS011;58088;51.186;17.130;2022-10-16T09:22:40;3.10;;;1.60;;
70532;SDS011;58088;51.186;17.130;2022-10-16T09:25:21;3.90;;;1.80;;
70532;SDS011;58088;51.186;17.130;2022-10-16T09:27:48;3.80;;;2.10;;
70532;SDS011;58088;51.186;17.130;2022-10-16T09:30:21;3.70;;;2.10;;
70532;SDS011;58088;51.186;17.130;2022-10-16T09:32:51;3.70;;;1.90;;
70532;SDS011;58088;51.186;17.130;2022-10-16T09:35:22;4.70;;;2.20;;
70532;SDS011;58088;51.186;17.130;2022-10-16T09:37:57;4.40;;;1.80;;
70532;SDS011;58088;51.186;17.130;2022-10-16T09:42:55;4.50;;;1.90;;
70532;SDS011;58088;51.186;17.130;2022-10-16T09:45:43;2.70;;;1.70;;
70532;SDS011;58088;51.186;17.130;2022-10-16T09:48:19;4.30;;;1.90;;
70532;SDS011;58088;51.186;17.130;2022-10-16T09:50:56;4.10;;;1.80;;
70532;SDS011;58088;51.186;17.130;2022-10-16T09:53:38;4.80;;;2.00;;
70532;SDS011;58088;51.186;17.130;2022-10-16T09:56:10;3.30;;;1.70;;
70532;SDS011;58088;51.186;17.130;2022-10-16T09:58:51;3.60;;;2.10;;
70532;SDS011;58088;51.186;17.130;2022-10-16T10:01:26;2.90;;;1.70;;
70532;SDS011;58088;51.186;17.130;2022-10-16T10:04:06;3.10;;;1.90;;
70532;SDS011;58088;51.186;17.130;2022-10-16T10:06:36;4.10;;;1.80;;
70532;SDS011;58088;51.186;17.130;2022-10-16T10:09:21;4.30;;;1.90;;
70532;SDS011;58088;51.186;17.130;2022-10-16T10:11:58;3.30;;;2.00;;
70532;SDS011;58088;51.186;17.130;2022-10-16T10:14:34;6.20;;;1.90;;
70532;SDS011;58088;51.186;17.130;2022-10-16T10:19:50;3.50;;;2.00;;
70532;SDS011;58088;51.186;17.130;2022-10-16T10:22:26;4.10;;;1.90;;
70532;SDS011;58088;51.186;17.130;2022-10-16T10:30:56;2.80;;;1.50;;
70532;SDS011;58088;51.186;17.130;2022-10-16T10:33:47;2.80;;;1.40;;
70532;SDS011;58088;51.186;17.130;2022-10-16T10:47:32;2.20;;;1.30;;
70532;SDS011;58088;51.186;17.130;2022-10-16T10:50:20;2.30;;;1.50;;
70532;SDS011;58088;51.186;17.130;2022-10-16T11:09:19;3.50;;;1.30;;
70532;SDS011;58088;51.186;17.130;2022-10-16T11:11:55;1.50;;;1.00;;
70532;SDS011;58088;51.186;17.130;2022-10-16T11:14:49;1.80;;;1.10;;
70532;SDS011;58088;51.186;17.130;2022-10-16T11:17:30;3.10;;;1.50;;
70532;SDS011;58088;51.186;17.130;2022-10-16T11:20:18;3.50;;;1.20;;
70532;SDS011;58088;51.186;17.130;2022-10-16T11:22:53;1.60;;;1.00;;
70532;SDS011;58088;51.186;17.130;2022-10-16T11:25:36;2.00;;;1.00;;
70532;SDS011;58088;51.186;17.130;2022-10-16T11:28:12;1.80;;;1.00;;
70532;SDS011;58088;51.186;17.130;2022-10-16T11:31:00;2.00;;;1.10;;
70532;SDS011;58088;51.186;17.130;2022-10-16T11:39:19;1.90;;;1.10;;
70532;SDS011;58088;51.186;17.130;2022-10-16T11:42:13;2.30;;;1.30;;
70532;SDS011;58088;51.186;17.130;2022-10-16T11:44:48;2.50;;;1.20;;
70532;SDS011;58088;51.186;17.130;2022-10-16T11:47:40;2.00;;;1.20;;
70532;SDS011;58088;51.186;17.130;2022-10-16T11:55:49;3.10;;;1.30;;
70532;SDS011;58088;51.186;17.130;2022-10-16T11:58:29;2.50;;;1.30;;
70532;SDS011;58088;51.186;17.130;2022-10-16T12:01:26;3.70;;;1.20;;
70532;SDS011;58088;51.186;17.130;2022-10-16T12:04:33;1.80;;;1.10;;
70532;SDS011;58088;51.186;17.130;2022-10-16T12:07:35;4.70;;;1.20;;
70532;SDS011;58088;51.186;17.130;2022-10-16T12:10:19;2.20;;;0.90;;
70532;SDS011;58088;51.186;17.130;2022-10-16T12:12:51;2.20;;;1.20;;
70532;SDS011;58088;51.186;17.130;2022-10-16T12:15:29;2.50;;;1.20;;
70532;SDS011;58088;51.186;17.130;2022-10-16T12:17:58;2.10;;;1.20;;
70532;SDS011;58088;51.186;17.130;2022-10-16T12:20:30;2.00;;;1.10;;
70532;SDS011;58088;51.186;17.130;2022-10-16T12:23:02;2.50;;;1.30;;
70532;SDS011;58088;51.186;17.130;2022-10-16T12:25:34;2.50;;;1.40;;
70532;SDS011;58088;51.186;17.130;2022-10-16T12:28:17;3.50;;;1.40;;
70532;SDS011;58088;51.186;17.130;2022-10-16T12:30:54;4.30;;;1.50;;
70532;SDS011;58088;51.186;17.130;2022-10-16T12:33:29;2.90;;;1.40;;
70532;SDS011;58088;51.186;17.130;2022-10-16T12:36:00;2.60;;;1.70;;
70532;SDS011;58088;51.186;17.130;2022-10-16T12:38:50;2.60;;;1.60;;
70532;SDS011;58088;51.186;17.130;2022-10-16T12:41:33;3.40;;;1.90;;
70532;SDS011;58088;51.186;17.130;2022-10-16T12:44:02;3.40;;;1.70;;
70532;SDS011;58088;51.186;17.130;2022-10-16T12:51:42;4.50;;;2.10;;
70532;SDS011;58088;51.186;17.130;2022-10-16T13:00:16;3.00;;;1.80;;
70532;SDS011;58088;51.186;17.130;2022-10-16T13:09:28;19.40;;;17.00;;
70532;SDS011;58088;51.186;17.130;2022-10-16T13:12:31;11.60;;;8.10;;
70532;SDS011;58088;51.186;17.130;2022-10-16T13:15:24;70.90;;;50.40;;
70532;SDS011;58088;51.186;17.130;2022-10-16T13:18:25;28.50;;;20.80;;
70532;SDS011;58088;51.186;17.130;2022-10-16T13:21:07;90.80;;;70.40;;
70532;SDS011;58088;51.186;17.130;2022-10-16T13:26:57;46.80;;;38.30;;
70532;SDS011;58088;51.186;17.130;2022-10-16T13:29:35;89.50;;;68.50;;
70532;SDS011;58088;51.186;17.130;2022-10-16T13:32:07;77.90;;;58.70;;
70532;SDS011;58088;51.186;17.130;2022-10-16T13:34:48;86.30;;;75.90;;
70532;SDS011;58088;51.186;17.130;2022-10-16T13:37:19;118.40;;;98.80;;
70532;SDS011;58088;51.186;17.130;2022-10-16T13:39:48;44.40;;;36.60;;
70532;SDS011;58088;51.186;17.130;2022-10-16T13:42:25;131.10;;;82.50;;
70532;SDS011;58088;51.186;17.130;2022-10-16T13:44:55;40.10;;;29.30;;
70532;SDS011;58088;51.186;17.130;2022-10-16T13:47:27;136.50;;;99.50;;
70532;SDS011;58088;51.186;17.130;2022-10-16T13:50:19;87.80;;;64.00;;
70532;SDS011;58088;51.186;17.130;2022-10-16T13:52:45;151.50;;;101.50;;
70532;SDS011;58088;51.186;17.130;2022-10-16T13:55:16;94.50;;;61.40;;
70532;SDS011;58088;51.186;17.130;2022-10-16T13:57:44;66.30;;;46.70;;
70532;SDS011;58088;51.186;17.130;2022-10-16T14:00:22;50.00;;;37.40;;
70532;SDS011;58088;51.186;17.130;2022-10-16T14:03:01;31.30;;;21.60;;
70532;SDS011;58088;51.186;17.130;2022-10-16T14:05:30;18.10;;;14.00;;
70532;SDS011;58088;51.186;17.130;2022-10-16T14:07:57;20.40;;;15.50;;
70532;SDS011;58088;51.186;17.130;2022-10-16T14:10:31;44.90;;;34.50;;
70532;SDS011;58088;51.186;17.130;2022-10-16T14:13:05;33.00;;;25.70;;
70532;SDS011;58088;51.186;17.130;2022-10-16T14:15:35;18.30;;;12.70;;
70532;SDS011;58088;51.186;17.130;2022-10-16T14:18:03;14.60;;;11.50;;
70532;SDS011;58088;51.186;17.130;2022-10-16T14:20:32;11.60;;;7.20;;
70532;SDS011;58088;51.186;17.130;2022-10-16T14:23:03;7.30;;;4.90;;
70532;SDS011;58088;51.186;17.130;2022-10-16T14:25:32;5.30;;;3.60;;
70532;SDS011;58088;51.186;17.130;2022-10-16T14:28:18;5.40;;;3.00;;
70532;SDS011;58088;51.186;17.130;2022-10-16T14:30:51;5.60;;;3.10;;
70532;SDS011;58088;51.186;17.130;2022-10-16T14:36:14;5.70;;;2.80;;
70532;SDS011;58088;51.186;17.130;2022-10-16T14:39:04;6.40;;;2.60;;
70532;SDS011;58088;51.186;17.130;2022-10-16T14:41:50;5.00;;;2.50;;
70532;SDS011;58088;51.186;17.130;2022-10-16T14:44:18;4.00;;;2.20;;
70532;SDS011;58088;51.186;17.130;2022-10-16T14:46:52;3.60;;;2.20;;
70532;SDS011;58088;51.186;17.130;2022-10-16T14:49:20;3.90;;;2.60;;
70532;SDS011;58088;51.186;17.130;2022-10-16T14:51:48;3.40;;;2.10;;
70532;SDS011;58088;51.186;17.130;2022-10-16T14:54:16;5.60;;;2.50;;
70532;SDS011;58088;51.186;17.130;2022-10-16T14:56:57;3.80;;;2.00;;
70532;SDS011;58088;51.186;17.130;2022-10-16T14:59:31;4.00;;;2.40;;
70532;SDS011;58088;51.186;17.130;2022-10-16T15:02:29;5.10;;;2.50;;
70532;SDS011;58088;51.186;17.130;2022-10-16T15:04:58;3.80;;;2.30;;
70532;SDS011;58088;51.186;17.130;2022-10-16T15:07:36;4.50;;;2.60;;
70532;SDS011;58088;51.186;17.130;2022-10-16T15:10:03;4.30;;;2.90;;
70532;SDS011;58088;51.186;17.130;2022-10-16T15:12:29;7.10;;;3.60;;
70532;SDS011;58088;51.186;17.130;2022-10-16T15:14:55;6.20;;;3.40;;
70532;SDS011;58088;51.186;17.130;2022-10-16T15:17:21;4.90;;;2.60;;
70532;SDS011;58088;51.186;17.130;2022-10-16T15:19:47;5.20;;;3.00;;
70532;SDS011;58088;51.186;17.130;2022-10-16T15:22:13;7.40;;;3.50;;
70532;SDS011;58088;51.186;17.130;2022-10-16T15:24:40;5.20;;;3.20;;
70532;SDS011;58088;51.186;17.130;2022-10-16T15:27:06;5.60;;;3.20;;
70532;SDS011;58088;51.186;17.130;2022-10-16T15:29:32;6.40;;;2.80;;
70532;SDS011;58088;51.186;17.130;2022-10-16T15:31:58;5.30;;;2.90;;
70532;SDS011;58088;51.186;17.130;2022-10-16T15:34:25;4.00;;;2.60;;
70532;SDS011;58088;51.186;17.130;2022-10-16T15:36:51;4.20;;;2.40;;
70532;SDS011;58088;51.186;17.130;2022-10-16T15:39:19;5.50;;;2.70;;
70532;SDS011;58088;51.186;17.130;2022-10-16T15:41:47;4.60;;;2.70;;
70532;SDS011;58088;51.186;17.130;2022-10-16T15:44:17;4.70;;;2.90;;
70532;SDS011;58088;51.186;17.130;2022-10-16T15:46:43;4.40;;;2.90;;
70532;SDS011;58088;51.186;17.130;2022-10-16T15:49:11;4.30;;;2.60;;
70532;SDS011;58088;51.186;17.130;2022-10-16T15:51:41;5.10;;;2.90;;
70532;SDS011;58088;51.186;17.130;2022-10-16T15:54:08;4.40;;;2.80;;
70532;SDS011;58088;51.186;17.130;2022-10-16T15:56:35;4.40;;;2.90;;
70532;SDS011;58088;51.186;17.130;2022-10-16T15:59:03;4.70;;;2.70;;
70532;SDS011;58088;51.186;17.130;2022-10-16T16:01:35;5.90;;;3.10;;
70532;SDS011;58088;51.186;17.130;2022-10-16T16:04:01;5.40;;;3.00;;
70532;SDS011;58088;51.186;17.130;2022-10-16T16:06:27;5.50;;;2.90;;
70532;SDS011;58088;51.186;17.130;2022-10-16T16:08:54;4.90;;;2.90;;
70532;SDS011;58088;51.186;17.130;2022-10-16T16:11:20;5.70;;;3.20;;
70532;SDS011;58088;51.186;17.130;2022-10-16T16:13:48;5.80;;;3.20;;
70532;SDS011;58088;51.186;17.130;2022-10-16T16:16:16;6.90;;;4.40;;
70532;SDS011;58088;51.186;17.130;2022-10-16T16:18:43;7.30;;;5.00;;
70532;SDS011;58088;51.186;17.130;2022-10-16T16:21:11;7.50;;;4.60;;
70532;SDS011;58088;51.186;17.130;2022-10-16T16:23:38;7.10;;;3.80;;
70532;SDS011;58088;51.186;17.130;2022-10-16T16:26:29;6.00;;;3.80;;
70532;SDS011;58088;51.186;17.130;2022-10-16T16:29:03;6.20;;;3.50;;
70532;SDS011;58088;51.186;17.130;2022-10-16T16:31:31;6.60;;;4.10;;
70532;SDS011;58088;51.186;17.130;2022-10-16T16:33:59;7.20;;;3.60;;
70532;SDS011;58088;51.186;17.130;2022-10-16T16:36:25;6.90;;;4.10;;
70532;SDS011;58088;51.186;17.130;2022-10-16T16:38:51;7.70;;;4.40;;
70532;SDS011;58088;51.186;17.130;2022-10-16T16:41:20;8.60;;;4.90;;
70532;SDS011;58088;51.186;17.130;2022-10-16T16:43:49;7.10;;;5.10;;
70532;SDS011;58088;51.186;17.130;2022-10-16T16:46:17;8.20;;;5.00;;
70532;SDS011;58088;51.186;17.130;2022-10-16T16:48:45;9.20;;;5.70;;
70532;SDS011;58088;51.186;17.130;2022-10-16T16:51:34;9.20;;;5.70;;
70532;SDS011;58088;51.186;17.130;2022-10-16T16:54:00;7.20;;;5.10;;
70532;SDS011;58088;51.186;17.130;2022-10-16T16:56:27;11.20;;;5.90;;